FW2569 Weather Reports


time (UTC)temp
C
wind
direction
speed
KPH
gust
KPH
rain 1hr
cm
rain 24hr
cm
rain mn
cm
humidity
%
barometer
mb
20210723161526 30 248 12.9 17.7 0.00 1.35 0.03 82 1020.4
20210723160145 29 223 6.4 16.1 0.00 1.35 0.03 84 1020.4
20210723154524 28 222 12.9 22.5 0.00 1.35 0.03 86 1020.4
20210723153125 28 198 4.8 14.5 0.00 1.35 0.03 89 1020.5
20210723150305 27 201 3.2 9.7 0.00 1.35 0.03 94 1020.7
20210723144520 27 205 1.6 9.7 0.00 1.35 0.03 95 1020.7
20210723143154 26 156 1.6 6.4 0.00 1.35 0.03 96 1020.6
20210723141600 26 172 1.6 9.7 0.00 1.35 0.03 97 1020.5
20210723134553 25 165 0.0 4.8 0.00 1.35 0.03 98 1020.4
20210723133023 25 150 0.0 1.6 0.00 1.35 0.03 99 1020.4
20210723131601 24 137 0.0 1.6 0.00 1.35 0.03 99 1020.3
20210723124612 23 137 0.0 1.6 0.00 1.35 0.03 99 1020.2
20210723123034 23 131 0.0 1.6 0.00 1.35 0.03 99 1019.9
20210723121644 22 127 0.0 1.6 0.00 1.35 0.03 99 1019.9
20210723120031 22 148 0.0 0.0 0.00 1.35 0.03 99 1019.8
20210723114532 22 149 0.0 0.0 0.00 1.35 0.03 99 1019.7
20210723113052 22 150 0.0 0.0 0.00 1.35 0.03 99 1019.6
20210723111524 22 149 0.0 0.0 0.00 1.35 0.03 99 1019.4
20210723110159 22 149 0.0 0.0 0.00 1.35 0.03 99 1019.2
20210723104508 22 151 0.0 0.0 0.00 1.35 0.03 99 1019.0
20210723103205 22 169 0.0 0.0 0.00 1.35 0.03 99 1019.2
20210723101529 22 172 0.0 0.0 0.00 1.35 0.03 99 1019.3
20210723100408 22 172 0.0 0.0 0.00 1.35 0.03 99 1019.3
20210723094525 22 172 0.0 0.0 0.00 1.35 0.03 99 1019.2
20210723093045 22 172 0.0 0.0 0.00 1.35 0.03 99 1019.2
20210723091523 22 172 0.0 0.0 0.00 1.35 0.03 99 1019.2
20210723090149 22 173 0.0 0.0 0.00 1.35 0.03 99 1019.3
20210723084649 22 173 0.0 0.0 0.00 1.35 0.03 99 1019.3
20210723083042 22 173 0.0 0.0 0.00 1.35 0.03 99 1019.3
20210723081615 22 173 0.0 0.0 0.00 1.35 0.03 99 1019.3
20210723080136 22 173 0.0 0.0 0.03 1.35 0.03 99 1019.4
20210723074645 22 173 0.0 0.0 0.03 1.35 0.03 99 1019.4
20210723074503 22 173 0.0 0.0 0.03 1.35 0.03 99 1019.4
20210723073111 22 173 0.0 0.0 0.03 1.35 0.03 99 1019.3
20210723071656 22 173 0.0 0.0 0.03 1.35 0.03 99 1019.3
20210723070006 22 173 0.0 0.0 0.00 1.32 0.00 99 1019.3
20210723064703 22 173 0.0 0.0 0.00 1.35 0.00 99 1019.2
20210723063059 22 167 0.0 0.0 0.00 1.35 0.00 99 1019.2
20210723061517 23 155 0.0 0.0 0.00 1.35 0.00 99 1019.1
20210723060344 22 143 0.0 0.0 0.00 1.35 0.00 99 1019.2
20210723054508 22 143 0.0 0.0 0.00 1.35 0.00 99 1019.2
20210723053217 22 143 0.0 1.6 0.00 1.35 0.00 99 1019.1
20210723051529 23 165 0.0 0.0 0.00 1.35 0.00 99 1019.1
20210723050306 23 167 0.0 0.0 0.00 1.35 0.00 99 1019.0
20210723044556 23 156 0.0 0.0 0.00 1.35 1.35 99 1019.0
20210723043137 23 156 0.0 0.0 0.00 1.35 1.35 98 1018.9
20210723041609 23 148 0.0 0.0 0.00 1.35 1.35 99 1018.9
20210723034559 23 162 0.0 0.0 0.00 1.35 1.35 98 1018.9
20210723033143 23 162 0.0 0.0 0.00 1.35 1.35 98 1018.8
20210723033006 23 162 0.0 0.0 0.00 1.35 1.35 98 1018.8
20210723031618 23 195 0.0 0.0 0.00 1.35 1.35 98 1018.7
20210723024553 23 160 0.0 3.2 0.00 1.35 1.35 98 1018.7
20210723023027 23 160 0.0 3.2 0.00 1.35 1.35 98 1018.8
20210723021749 23 148 0.0 3.2 0.03 1.35 1.35 98 1019.0
20210723020014 23 150 0.0 4.8 0.08 1.35 1.35 98 1019.0
20210723014704 23 146 0.0 4.8 0.10 1.35 1.35 98 1019.0
20210723013027 23 124 0.0 1.6 0.15 1.35 1.35 98 1019.0
20210723011657 23 193 0.0 4.8 0.13 1.32 1.32 98 1019.2
20210723011503 23 196 0.0 4.8 0.13 1.32 1.32 98 1019.2
20210723010046 23 205 1.6 6.4 0.58 1.27 1.27 98 1019.4
20210723004626 23 217 0.0 8.0 1.17 1.55 1.24 97 1019.1
20210723003144 23 233 0.0 17.7 1.12 1.50 1.19 97 1019.0
20210723001522 23 221 11.3 24.1 1.12 1.50 1.19 96 1019.2
20210723000032 23 244 29.0 46.7 0.61 0.94 0.69 90 1019.5
20210722234605 27 248 0.0 1.6 0.05 3.91 0.08 82 1017.9
20210722233036 28 139 0.0 8.0 0.05 3.91 0.08 78 1017.5
20210722231504 29 96 4.8 19.3 0.03 3.89 0.08 69 1017.3
20210722224526 32 233 6.4 17.7 0.00 3.86 0.03 63 1017.3
20210722223029 32 217 3.2 12.9 0.00 3.86 0.03 68 1017.2
20210722221714 31 233 8.0 17.7 0.00 3.86 0.03 66 1017.1
20210722221505 31 243 8.0 17.7 0.00 3.86 0.03 67 1017.1
20210722220154 32 207 8.0 17.7 0.00 3.86 0.03 66 1017.1
20210722214636 32 255 6.4 14.5 0.00 3.86 0.03 66 1017.3
20210722213025 32 247 9.7 16.1 0.00 3.86 0.03 63 1017.5
20210722211507 32 228 8.0 16.1 0.00 3.86 0.03 66 1017.7
20210722210157 32 215 4.8 16.1 0.00 3.86 0.03 67 1017.7
20210722204701 32 229 8.0 17.7 0.00 3.86 0.03 66 1017.8
20210722203108 32 252 8.0 16.1 0.00 3.86 0.03 66 1017.8
20210722201519 32 233 3.2 16.1 0.00 3.86 0.03 67 1018.1
20210722200203 32 218 6.4 11.3 0.00 3.86 0.03 66 1018.2
20210722194509 31 235 6.4 16.1 0.00 3.86 0.03 67 1018.4
20210722193112 31 229 8.0 16.1 0.00 3.86 0.03 67 1018.6
20210722191527 31 233 4.8 12.9 0.00 3.86 0.03 68 1018.8
20210722190219 31 219 4.8 19.3 0.00 3.86 0.03 68 1019.1
20210722184618 31 233 14.5 20.9 0.00 3.86 0.03 68 1019.3
20210722183219 31 220 6.4 17.7 0.00 3.86 0.03 66 1019.4
20210722181721 31 219 9.7 19.3 0.00 3.86 0.03 67 1019.6
20210722174553 30 218 11.3 19.3 0.00 4.11 0.03 68 1019.9
20210722173037 31 273 6.4 12.9 0.00 4.11 0.03 68 1020.0
20210722171618 30 247 9.7 16.1 0.00 4.11 0.03 67 1020.1
20210722171506 30 256 9.7 16.1 0.00 4.11 0.03 68 1020.0
20210722170136 30 210 6.4 14.5 0.00 4.11 0.03 70 1020.2
20210722164607 30 203 6.4 17.7 0.00 4.11 0.03 73 1020.2
20210722163048 30 221 6.4 19.3 0.00 4.11 0.03 71 1020.1